sensor_id;sensor_type;location;lat;lon;timestamp;P1;durP1;ratioP1;P2;durP2;ratioP2
12437;SDS011;6283;51.330;12.374;2023-05-23T00:00:25;4.88;;;4.38;;
12437;SDS011;6283;51.330;12.374;2023-05-23T00:02:50;5.93;;;4.63;;
12437;SDS011;6283;51.330;12.374;2023-05-23T00:05:16;6.18;;;4.97;;
12437;SDS011;6283;51.330;12.374;2023-05-23T00:07:46;7.97;;;5.38;;
12437;SDS011;6283;51.330;12.374;2023-05-23T00:10:12;5.15;;;4.65;;
12437;SDS011;6283;51.330;12.374;2023-05-23T00:12:37;6.53;;;4.45;;
12437;SDS011;6283;51.330;12.374;2023-05-23T00:15:06;6.22;;;4.65;;
12437;SDS011;6283;51.330;12.374;2023-05-23T00:17:32;7.55;;;4.65;;
12437;SDS011;6283;51.330;12.374;2023-05-23T00:20:00;6.95;;;4.80;;
12437;SDS011;6283;51.330;12.374;2023-05-23T00:22:26;5.25;;;4.75;;
12437;SDS011;6283;51.330;12.374;2023-05-23T00:24:52;5.38;;;4.82;;
12437;SDS011;6283;51.330;12.374;2023-05-23T00:27:18;5.57;;;5.07;;
12437;SDS011;6283;51.330;12.374;2023-05-23T00:29:43;6.20;;;5.10;;
12437;SDS011;6283;51.330;12.374;2023-05-23T00:32:11;6.20;;;4.97;;
12437;SDS011;6283;51.330;12.374;2023-05-23T00:34:40;5.55;;;4.93;;
12437;SDS011;6283;51.330;12.374;2023-05-23T00:37:05;6.72;;;4.95;;
12437;SDS011;6283;51.330;12.374;2023-05-23T00:39:32;8.57;;;5.05;;
12437;SDS011;6283;51.330;12.374;2023-05-23T00:41:58;7.07;;;5.32;;
12437;SDS011;6283;51.330;12.374;2023-05-23T00:44:27;6.13;;;4.85;;
12437;SDS011;6283;51.330;12.374;2023-05-23T00:46:54;5.43;;;4.93;;
12437;SDS011;6283;51.330;12.374;2023-05-23T00:49:21;5.13;;;4.63;;
12437;SDS011;6283;51.330;12.374;2023-05-23T00:51:48;6.88;;;5.50;;
12437;SDS011;6283;51.330;12.374;2023-05-23T00:54:20;6.97;;;5.35;;
12437;SDS011;6283;51.330;12.374;2023-05-23T00:56:49;5.65;;;4.63;;
12437;SDS011;6283;51.330;12.374;2023-05-23T00:59:15;7.50;;;5.30;;
12437;SDS011;6283;51.330;12.374;2023-05-23T01:01:41;5.25;;;4.75;;
12437;SDS011;6283;51.330;12.374;2023-05-23T01:04:10;5.32;;;4.82;;
12437;SDS011;6283;51.330;12.374;2023-05-23T01:06:37;5.40;;;4.70;;
12437;SDS011;6283;51.330;12.374;2023-05-23T01:09:04;7.28;;;5.35;;
12437;SDS011;6283;51.330;12.374;2023-05-23T01:11:42;6.05;;;5.22;;
12437;SDS011;6283;51.330;12.374;2023-05-23T01:14:34;8.32;;;5.60;;
12437;SDS011;6283;51.330;12.374;2023-05-23T01:17:19;6.97;;;5.20;;
12437;SDS011;6283;51.330;12.374;2023-05-23T01:22:25;5.97;;;4.90;;
12437;SDS011;6283;51.330;12.374;2023-05-23T01:25:13;6.28;;;5.30;;
12437;SDS011;6283;51.330;12.374;2023-05-23T01:28:04;8.32;;;5.68;;
12437;SDS011;6283;51.330;12.374;2023-05-23T01:30:32;7.20;;;5.97;;
12437;SDS011;6283;51.330;12.374;2023-05-23T01:33:03;6.00;;;5.40;;
12437;SDS011;6283;51.330;12.374;2023-05-23T01:35:29;8.63;;;5.88;;
12437;SDS011;6283;51.330;12.374;2023-05-23T01:37:56;8.57;;;5.65;;
12437;SDS011;6283;51.330;12.374;2023-05-23T01:40:22;7.15;;;6.45;;
12437;SDS011;6283;51.330;12.374;2023-05-23T01:42:48;7.25;;;6.07;;
12437;SDS011;6283;51.330;12.374;2023-05-23T01:45:15;9.00;;;6.20;;
12437;SDS011;6283;51.330;12.374;2023-05-23T01:47:41;6.65;;;6.05;;
12437;SDS011;6283;51.330;12.374;2023-05-23T01:50:09;7.07;;;6.00;;
12437;SDS011;6283;51.330;12.374;2023-05-23T01:52:35;7.45;;;6.68;;
12437;SDS011;6283;51.330;12.374;2023-05-23T01:55:02;6.78;;;6.07;;
12437;SDS011;6283;51.330;12.374;2023-05-23T01:57:34;7.28;;;6.57;;
12437;SDS011;6283;51.330;12.374;2023-05-23T02:00:01;7.40;;;6.70;;
12437;SDS011;6283;51.330;12.374;2023-05-23T02:02:26;8.38;;;6.35;;
12437;SDS011;6283;51.330;12.374;2023-05-23T02:04:52;8.55;;;7.40;;
12437;SDS011;6283;51.330;12.374;2023-05-23T02:07:18;12.40;;;7.72;;
12437;SDS011;6283;51.330;12.374;2023-05-23T02:09:47;10.90;;;7.80;;
12437;SDS011;6283;51.330;12.374;2023-05-23T02:12:13;9.35;;;8.32;;
12437;SDS011;6283;51.330;12.374;2023-05-23T02:14:38;11.07;;;8.10;;
12437;SDS011;6283;51.330;12.374;2023-05-23T02:17:06;9.68;;;8.65;;
12437;SDS011;6283;51.330;12.374;2023-05-23T02:19:35;11.27;;;9.23;;
12437;SDS011;6283;51.330;12.374;2023-05-23T02:22:00;10.07;;;8.90;;
12437;SDS011;6283;51.330;12.374;2023-05-23T02:24:27;9.02;;;8.07;;
12437;SDS011;6283;51.330;12.374;2023-05-23T02:26:53;9.35;;;8.35;;
12437;SDS011;6283;51.330;12.374;2023-05-23T02:29:18;8.68;;;7.78;;
12437;SDS011;6283;51.330;12.374;2023-05-23T02:31:44;9.88;;;8.60;;
12437;SDS011;6283;51.330;12.374;2023-05-23T02:34:10;10.07;;;8.77;;
12437;SDS011;6283;51.330;12.374;2023-05-23T02:36:35;11.98;;;8.88;;
12437;SDS011;6283;51.330;12.374;2023-05-23T02:39:02;16.15;;;9.38;;
12437;SDS011;6283;51.330;12.374;2023-05-23T02:41:28;10.15;;;9.15;;
12437;SDS011;6283;51.330;12.374;2023-05-23T02:43:54;12.60;;;10.82;;
12437;SDS011;6283;51.330;12.374;2023-05-23T02:46:20;10.93;;;9.80;;
12437;SDS011;6283;51.330;12.374;2023-05-23T02:48:45;13.05;;;10.70;;
12437;SDS011;6283;51.330;12.374;2023-05-23T02:51:11;11.82;;;10.73;;
12437;SDS011;6283;51.330;12.374;2023-05-23T02:53:37;13.07;;;10.90;;
12437;SDS011;6283;51.330;12.374;2023-05-23T02:56:03;12.60;;;10.82;;
12437;SDS011;6283;51.330;12.374;2023-05-23T02:58:31;11.85;;;10.20;;
12437;SDS011;6283;51.330;12.374;2023-05-23T03:00:59;12.43;;;9.80;;
12437;SDS011;6283;51.330;12.374;2023-05-23T03:03:28;11.43;;;10.02;;
12437;SDS011;6283;51.330;12.374;2023-05-23T03:05:55;11.88;;;10.52;;
12437;SDS011;6283;51.330;12.374;2023-05-23T03:08:22;12.57;;;9.70;;
12437;SDS011;6283;51.330;12.374;2023-05-23T03:10:47;11.48;;;9.88;;
12437;SDS011;6283;51.330;12.374;2023-05-23T03:13:13;11.02;;;9.88;;
12437;SDS011;6283;51.330;12.374;2023-05-23T03:15:39;12.73;;;10.88;;
12437;SDS011;6283;51.330;12.374;2023-05-23T03:18:04;11.40;;;10.20;;
12437;SDS011;6283;51.330;12.374;2023-05-23T03:20:30;11.60;;;10.35;;
12437;SDS011;6283;51.330;12.374;2023-05-23T03:22:56;12.52;;;10.93;;
12437;SDS011;6283;51.330;12.374;2023-05-23T03:25:21;13.52;;;11.50;;
12437;SDS011;6283;51.330;12.374;2023-05-23T03:27:47;14.15;;;10.93;;
12437;SDS011;6283;51.330;12.374;2023-05-23T03:30:12;12.80;;;11.30;;
12437;SDS011;6283;51.330;12.374;2023-05-23T03:32:38;11.98;;;10.77;;
12437;SDS011;6283;51.330;12.374;2023-05-23T03:35:04;13.55;;;12.15;;
12437;SDS011;6283;51.330;12.374;2023-05-23T03:37:30;14.23;;;11.88;;
12437;SDS011;6283;51.330;12.374;2023-05-23T03:39:55;13.30;;;11.90;;
12437;SDS011;6283;51.330;12.374;2023-05-23T03:42:21;13.57;;;11.35;;
12437;SDS011;6283;51.330;12.374;2023-05-23T03:44:47;13.63;;;11.82;;
12437;SDS011;6283;51.330;12.374;2023-05-23T03:47:12;12.65;;;11.35;;
12437;SDS011;6283;51.330;12.374;2023-05-23T03:49:38;13.90;;;11.63;;
12437;SDS011;6283;51.330;12.374;2023-05-23T03:52:04;18.02;;;13.20;;
12437;SDS011;6283;51.330;12.374;2023-05-23T03:54:29;16.13;;;11.60;;
12437;SDS011;6283;51.330;12.374;2023-05-23T03:56:55;12.70;;;10.88;;
12437;SDS011;6283;51.330;12.374;2023-05-23T03:59:21;16.05;;;11.68;;
12437;SDS011;6283;51.330;12.374;2023-05-23T04:01:46;14.13;;;12.27;;
12437;SDS011;6283;51.330;12.374;2023-05-23T04:04:12;12.55;;;11.32;;
12437;SDS011;6283;51.330;12.374;2023-05-23T04:06:37;12.02;;;10.75;;
12437;SDS011;6283;51.330;12.374;2023-05-23T04:09:03;13.35;;;11.70;;
12437;SDS011;6283;51.330;12.374;2023-05-23T04:11:30;12.52;;;11.13;;
12437;SDS011;6283;51.330;12.374;2023-05-23T04:13:56;12.45;;;11.25;;
12437;SDS011;6283;51.330;12.374;2023-05-23T04:16:22;12.00;;;10.77;;
12437;SDS011;6283;51.330;12.374;2023-05-23T04:18:48;12.18;;;10.10;;
12437;SDS011;6283;51.330;12.374;2023-05-23T04:21:14;12.82;;;10.25;;
12437;SDS011;6283;51.330;12.374;2023-05-23T04:23:40;11.57;;;10.48;;
12437;SDS011;6283;51.330;12.374;2023-05-23T04:26:05;13.02;;;11.32;;
12437;SDS011;6283;51.330;12.374;2023-05-23T04:28:31;11.80;;;10.27;;
12437;SDS011;6283;51.330;12.374;2023-05-23T04:30:58;11.35;;;10.18;;
12437;SDS011;6283;51.330;12.374;2023-05-23T04:33:23;10.95;;;9.85;;
12437;SDS011;6283;51.330;12.374;2023-05-23T04:35:50;11.63;;;10.50;;
12437;SDS011;6283;51.330;12.374;2023-05-23T04:38:15;11.15;;;9.98;;
12437;SDS011;6283;51.330;12.374;2023-05-23T04:40:41;11.30;;;10.15;;
12437;SDS011;6283;51.330;12.374;2023-05-23T04:43:07;11.57;;;10.32;;
12437;SDS011;6283;51.330;12.374;2023-05-23T04:45:34;13.07;;;11.07;;
12437;SDS011;6283;51.330;12.374;2023-05-23T04:48:01;12.80;;;10.95;;
12437;SDS011;6283;51.330;12.374;2023-05-23T04:50:27;13.90;;;11.50;;
12437;SDS011;6283;51.330;12.374;2023-05-23T04:52:56;13.82;;;10.77;;
12437;SDS011;6283;51.330;12.374;2023-05-23T04:55:22;11.45;;;10.27;;
12437;SDS011;6283;51.330;12.374;2023-05-23T04:57:48;12.70;;;11.30;;
12437;SDS011;6283;51.330;12.374;2023-05-23T05:00:13;14.85;;;10.85;;
12437;SDS011;6283;51.330;12.374;2023-05-23T05:02:39;14.18;;;11.02;;
12437;SDS011;6283;51.330;12.374;2023-05-23T05:05:08;15.32;;;11.50;;
12437;SDS011;6283;51.330;12.374;2023-05-23T05:07:34;12.63;;;11.32;;
12437;SDS011;6283;51.330;12.374;2023-05-23T05:10:01;12.57;;;10.93;;
12437;SDS011;6283;51.330;12.374;2023-05-23T05:12:27;12.57;;;11.07;;
12437;SDS011;6283;51.330;12.374;2023-05-23T05:14:52;13.18;;;11.55;;
12437;SDS011;6283;51.330;12.374;2023-05-23T05:17:18;12.93;;;11.13;;
12437;SDS011;6283;51.330;12.374;2023-05-23T05:19:44;13.65;;;12.20;;
12437;SDS011;6283;51.330;12.374;2023-05-23T05:22:10;15.15;;;11.77;;
12437;SDS011;6283;51.330;12.374;2023-05-23T05:24:36;12.93;;;11.60;;
12437;SDS011;6283;51.330;12.374;2023-05-23T05:27:02;14.55;;;10.98;;
12437;SDS011;6283;51.330;12.374;2023-05-23T05:29:27;14.93;;;12.43;;
12437;SDS011;6283;51.330;12.374;2023-05-23T05:31:53;13.05;;;10.93;;
12437;SDS011;6283;51.330;12.374;2023-05-23T05:34:19;12.88;;;11.32;;
12437;SDS011;6283;51.330;12.374;2023-05-23T05:36:45;14.88;;;11.32;;
12437;SDS011;6283;51.330;12.374;2023-05-23T05:39:12;15.60;;;11.43;;
12437;SDS011;6283;51.330;12.374;2023-05-23T05:41:38;16.73;;;12.07;;
12437;SDS011;6283;51.330;12.374;2023-05-23T05:44:04;15.35;;;12.60;;
12437;SDS011;6283;51.330;12.374;2023-05-23T05:46:30;17.77;;;13.65;;
12437;SDS011;6283;51.330;12.374;2023-05-23T05:48:56;16.13;;;13.30;;
12437;SDS011;6283;51.330;12.374;2023-05-23T05:51:22;16.33;;;13.00;;
12437;SDS011;6283;51.330;12.374;2023-05-23T05:53:47;17.27;;;12.38;;
12437;SDS011;6283;51.330;12.374;2023-05-23T05:56:13;18.02;;;14.20;;
12437;SDS011;6283;51.330;12.374;2023-05-23T05:58:39;15.68;;;14.07;;
12437;SDS011;6283;51.330;12.374;2023-05-23T06:01:05;16.08;;;14.38;;
12437;SDS011;6283;51.330;12.374;2023-05-23T06:03:31;17.00;;;15.20;;
12437;SDS011;6283;51.330;12.374;2023-05-23T06:05:57;18.45;;;15.05;;
12437;SDS011;6283;51.330;12.374;2023-05-23T06:08:23;18.73;;;15.82;;
12437;SDS011;6283;51.330;12.374;2023-05-23T06:10:49;17.08;;;14.23;;
12437;SDS011;6283;51.330;12.374;2023-05-23T06:13:15;17.45;;;15.32;;
12437;SDS011;6283;51.330;12.374;2023-05-23T06:15:41;18.48;;;14.45;;
12437;SDS011;6283;51.330;12.374;2023-05-23T06:18:07;18.88;;;14.93;;
12437;SDS011;6283;51.330;12.374;2023-05-23T06:20:33;17.17;;;15.38;;
12437;SDS011;6283;51.330;12.374;2023-05-23T06:22:58;17.35;;;15.50;;
12437;SDS011;6283;51.330;12.374;2023-05-23T06:25:25;19.83;;;16.58;;
12437;SDS011;6283;51.330;12.374;2023-05-23T06:27:51;18.48;;;15.88;;
12437;SDS011;6283;51.330;12.374;2023-05-23T06:30:17;17.05;;;15.25;;
12437;SDS011;6283;51.330;12.374;2023-05-23T06:32:42;19.88;;;16.02;;
12437;SDS011;6283;51.330;12.374;2023-05-23T06:35:08;21.42;;;16.15;;
12437;SDS011;6283;51.330;12.374;2023-05-23T06:37:34;23.75;;;16.52;;
12437;SDS011;6283;51.330;12.374;2023-05-23T06:39:59;20.00;;;16.08;;
12437;SDS011;6283;51.330;12.374;2023-05-23T06:42:26;20.95;;;16.05;;
12437;SDS011;6283;51.330;12.374;2023-05-23T06:44:51;21.73;;;16.92;;
12437;SDS011;6283;51.330;12.374;2023-05-23T06:47:17;21.80;;;17.13;;
12437;SDS011;6283;51.330;12.374;2023-05-23T06:49:43;23.02;;;17.65;;
12437;SDS011;6283;51.330;12.374;2023-05-23T06:52:09;21.70;;;16.45;;
12437;SDS011;6283;51.330;12.374;2023-05-23T06:54:35;24.02;;;17.13;;
12437;SDS011;6283;51.330;12.374;2023-05-23T06:57:00;23.42;;;16.60;;
12437;SDS011;6283;51.330;12.374;2023-05-23T06:59:26;20.48;;;14.55;;
12437;SDS011;6283;51.330;12.374;2023-05-23T07:01:52;22.33;;;15.65;;
12437;SDS011;6283;51.330;12.374;2023-05-23T07:04:17;20.45;;;14.48;;
12437;SDS011;6283;51.330;12.374;2023-05-23T07:06:43;23.40;;;15.55;;
12437;SDS011;6283;51.330;12.374;2023-05-23T07:09:09;19.25;;;13.85;;
12437;SDS011;6283;51.330;12.374;2023-05-23T07:11:35;22.38;;;15.23;;
12437;SDS011;6283;51.330;12.374;2023-05-23T07:14:03;21.45;;;14.38;;
12437;SDS011;6283;51.330;12.374;2023-05-23T07:16:29;23.60;;;15.35;;
12437;SDS011;6283;51.330;12.374;2023-05-23T07:18:55;20.98;;;14.68;;
12437;SDS011;6283;51.330;12.374;2023-05-23T07:21:21;19.23;;;14.20;;
12437;SDS011;6283;51.330;12.374;2023-05-23T07:23:46;20.30;;;13.50;;
12437;SDS011;6283;51.330;12.374;2023-05-23T07:26:12;16.88;;;12.73;;
12437;SDS011;6283;51.330;12.374;2023-05-23T07:28:38;20.52;;;12.90;;
12437;SDS011;6283;51.330;12.374;2023-05-23T07:31:03;18.27;;;13.23;;
12437;SDS011;6283;51.330;12.374;2023-05-23T07:33:29;16.48;;;11.80;;
12437;SDS011;6283;51.330;12.374;2023-05-23T07:35:55;14.23;;;10.38;;
12437;SDS011;6283;51.330;12.374;2023-05-23T07:38:20;14.90;;;11.07;;
12437;SDS011;6283;51.330;12.374;2023-05-23T07:40:48;13.88;;;10.40;;
12437;SDS011;6283;51.330;12.374;2023-05-23T07:43:14;12.32;;;10.60;;
12437;SDS011;6283;51.330;12.374;2023-05-23T07:45:39;17.15;;;9.95;;
12437;SDS011;6283;51.330;12.374;2023-05-23T07:48:08;12.95;;;10.32;;
12437;SDS011;6283;51.330;12.374;2023-05-23T07:50:36;11.70;;;10.15;;
12437;SDS011;6283;51.330;12.374;2023-05-23T07:53:03;14.48;;;9.80;;
12437;SDS011;6283;51.330;12.374;2023-05-23T07:55:30;14.98;;;9.85;;
12437;SDS011;6283;51.330;12.374;2023-05-23T07:57:56;14.68;;;9.90;;
12437;SDS011;6283;51.330;12.374;2023-05-23T08:00:21;14.27;;;9.75;;
12437;SDS011;6283;51.330;12.374;2023-05-23T08:02:47;11.15;;;8.32;;
12437;SDS011;6283;51.330;12.374;2023-05-23T08:05:13;12.38;;;9.35;;
12437;SDS011;6283;51.330;12.374;2023-05-23T08:07:39;13.60;;;9.27;;
12437;SDS011;6283;51.330;12.374;2023-05-23T08:10:05;10.07;;;8.40;;
12437;SDS011;6283;51.330;12.374;2023-05-23T08:12:31;9.95;;;8.15;;
12437;SDS011;6283;51.330;12.374;2023-05-23T08:14:57;10.77;;;9.13;;
12437;SDS011;6283;51.330;12.374;2023-05-23T08:17:23;9.65;;;8.00;;
12437;SDS011;6283;51.330;12.374;2023-05-23T08:19:48;9.80;;;8.30;;
12437;SDS011;6283;51.330;12.374;2023-05-23T08:22:14;10.40;;;8.73;;
12437;SDS011;6283;51.330;12.374;2023-05-23T08:24:40;9.77;;;8.40;;
12437;SDS011;6283;51.330;12.374;2023-05-23T08:27:05;11.70;;;8.73;;
12437;SDS011;6283;51.330;12.374;2023-05-23T08:29:32;9.18;;;8.07;;
12437;SDS011;6283;51.330;12.374;2023-05-23T08:31:59;13.90;;;9.52;;
12437;SDS011;6283;51.330;12.374;2023-05-23T08:34:25;10.98;;;8.98;;
12437;SDS011;6283;51.330;12.374;2023-05-23T08:36:50;14.73;;;9.60;;
12437;SDS011;6283;51.330;12.374;2023-05-23T08:39:16;15.90;;;8.88;;
12437;SDS011;6283;51.330;12.374;2023-05-23T08:41:42;11.43;;;8.93;;
12437;SDS011;6283;51.330;12.374;2023-05-23T08:44:08;11.73;;;9.18;;
12437;SDS011;6283;51.330;12.374;2023-05-23T08:46:37;11.90;;;8.80;;
12437;SDS011;6283;51.330;12.374;2023-05-23T08:49:08;11.60;;;9.30;;
12437;SDS011;6283;51.330;12.374;2023-05-23T08:51:35;10.50;;;8.48;;
12437;SDS011;6283;51.330;12.374;2023-05-23T08:54:03;10.77;;;8.93;;
12437;SDS011;6283;51.330;12.374;2023-05-23T08:56:30;10.27;;;8.80;;
12437;SDS011;6283;51.330;12.374;2023-05-23T08:58:56;14.18;;;9.50;;
12437;SDS011;6283;51.330;12.374;2023-05-23T09:01:22;11.05;;;9.57;;
12437;SDS011;6283;51.330;12.374;2023-05-23T09:03:50;15.02;;;9.73;;
12437;SDS011;6283;51.330;12.374;2023-05-23T09:06:15;12.15;;;9.07;;
12437;SDS011;6283;51.330;12.374;2023-05-23T09:08:43;12.80;;;9.45;;
12437;SDS011;6283;51.330;12.374;2023-05-23T09:11:10;11.07;;;9.57;;
12437;SDS011;6283;51.330;12.374;2023-05-23T09:13:37;11.18;;;9.32;;
12437;SDS011;6283;51.330;12.374;2023-05-23T09:16:14;12.35;;;10.02;;
12437;SDS011;6283;51.330;12.374;2023-05-23T09:18:42;11.68;;;9.75;;
12437;SDS011;6283;51.330;12.374;2023-05-23T09:21:09;10.90;;;8.90;;
12437;SDS011;6283;51.330;12.374;2023-05-23T09:23:36;11.50;;;8.90;;
12437;SDS011;6283;51.330;12.374;2023-05-23T09:26:06;12.57;;;10.32;;
12437;SDS011;6283;51.330;12.374;2023-05-23T09:28:33;12.20;;;10.38;;
12437;SDS011;6283;51.330;12.374;2023-05-23T09:31:01;12.15;;;8.82;;
12437;SDS011;6283;51.330;12.374;2023-05-23T09:33:34;11.45;;;9.73;;
12437;SDS011;6283;51.330;12.374;2023-05-23T09:36:03;11.40;;;9.32;;
12437;SDS011;6283;51.330;12.374;2023-05-23T09:38:39;10.32;;;8.80;;
12437;SDS011;6283;51.330;12.374;2023-05-23T09:41:06;10.20;;;8.18;;
12437;SDS011;6283;51.330;12.374;2023-05-23T09:43:32;9.25;;;8.20;;
12437;SDS011;6283;51.330;12.374;2023-05-23T09:46:08;11.65;;;8.65;;
12437;SDS011;6283;51.330;12.374;2023-05-23T09:48:38;9.55;;;8.48;;
12437;SDS011;6283;51.330;12.374;2023-05-23T09:51:04;9.48;;;8.13;;
12437;SDS011;6283;51.330;12.374;2023-05-23T09:53:30;11.82;;;8.80;;
12437;SDS011;6283;51.330;12.374;2023-05-23T09:55:57;13.02;;;8.80;;
12437;SDS011;6283;51.330;12.374;2023-05-23T09:58:25;11.35;;;9.15;;
12437;SDS011;6283;51.330;12.374;2023-05-23T10:00:53;10.52;;;8.68;;
12437;SDS011;6283;51.330;12.374;2023-05-23T10:03:31;11.50;;;8.68;;
12437;SDS011;6283;51.330;12.374;2023-05-23T10:06:06;11.10;;;8.98;;
12437;SDS011;6283;51.330;12.374;2023-05-23T10:08:42;9.57;;;8.07;;
12437;SDS011;6283;51.330;12.374;2023-05-23T10:13:42;9.20;;;7.57;;
12437;SDS011;6283;51.330;12.374;2023-05-23T10:16:18;10.77;;;8.25;;
12437;SDS011;6283;51.330;12.374;2023-05-23T10:18:55;10.35;;;7.30;;
12437;SDS011;6283;51.330;12.374;2023-05-23T10:21:25;10.05;;;7.20;;
12437;SDS011;6283;51.330;12.374;2023-05-23T10:24:00;7.63;;;6.72;;
12437;SDS011;6283;51.330;12.374;2023-05-23T10:26:28;9.30;;;7.10;;
12437;SDS011;6283;51.330;12.374;2023-05-23T10:28:53;10.43;;;7.72;;
12437;SDS011;6283;51.330;12.374;2023-05-23T10:31:20;7.93;;;7.13;;
12437;SDS011;6283;51.330;12.374;2023-05-23T10:33:49;8.25;;;6.70;;
12437;SDS011;6283;51.330;12.374;2023-05-23T10:36:50;12.15;;;6.90;;
12437;SDS011;6283;51.330;12.374;2023-05-23T10:39:27;7.05;;;5.93;;
12437;SDS011;6283;51.330;12.374;2023-05-23T10:42:11;10.07;;;6.25;;
12437;SDS011;6283;51.330;12.374;2023-05-23T10:44:48;8.52;;;5.90;;
12437;SDS011;6283;51.330;12.374;2023-05-23T10:47:24;7.68;;;6.32;;
12437;SDS011;6283;51.330;12.374;2023-05-23T10:49:51;6.72;;;5.80;;
12437;SDS011;6283;51.330;12.374;2023-05-23T10:52:18;8.88;;;6.43;;
12437;SDS011;6283;51.330;12.374;2023-05-23T10:54:46;6.35;;;5.75;;
12437;SDS011;6283;51.330;12.374;2023-05-23T10:57:17;6.43;;;5.53;;
12437;SDS011;6283;51.330;12.374;2023-05-23T10:59:45;5.65;;;5.05;;
12437;SDS011;6283;51.330;12.374;2023-05-23T11:02:15;7.20;;;4.97;;
12437;SDS011;6283;51.330;12.374;2023-05-23T11:05:09;6.03;;;4.80;;
12437;SDS011;6283;51.330;12.374;2023-05-23T11:08:00;4.90;;;4.00;;
12437;SDS011;6283;51.330;12.374;2023-05-23T11:10:30;13.52;;;5.00;;
12437;SDS011;6283;51.330;12.374;2023-05-23T11:13:04;6.15;;;3.90;;
12437;SDS011;6283;51.330;12.374;2023-05-23T11:15:40;7.43;;;3.42;;
12437;SDS011;6283;51.330;12.374;2023-05-23T11:18:06;7.30;;;3.80;;
12437;SDS011;6283;51.330;12.374;2023-05-23T11:20:32;4.13;;;3.10;;
12437;SDS011;6283;51.330;12.374;2023-05-23T11:23:01;2.95;;;2.35;;
12437;SDS011;6283;51.330;12.374;2023-05-23T11:28:09;4.68;;;2.15;;
12437;SDS011;6283;51.330;12.374;2023-05-23T11:30:36;1.73;;;1.63;;
12437;SDS011;6283;51.330;12.374;2023-05-23T11:33:12;3.83;;;1.73;;
12437;SDS011;6283;51.330;12.374;2023-05-23T11:35:39;4.25;;;1.42;;
12437;SDS011;6283;51.330;12.374;2023-05-23T11:38:09;1.30;;;1.30;;
12437;SDS011;6283;51.330;12.374;2023-05-23T11:43:03;2.90;;;1.60;;
12437;SDS011;6283;51.330;12.374;2023-05-23T11:45:31;1.85;;;1.73;;
12437;SDS011;6283;51.330;12.374;2023-05-23T11:48:03;6.40;;;1.92;;
12437;SDS011;6283;51.330;12.374;2023-05-23T11:53:10;1.80;;;1.50;;
12437;SDS011;6283;51.330;12.374;2023-05-23T11:55:38;3.30;;;1.60;;
12437;SDS011;6283;51.330;12.374;2023-05-23T11:58:05;1.60;;;1.50;;
12437;SDS011;6283;51.330;12.374;2023-05-23T12:00:31;3.10;;;1.85;;
12437;SDS011;6283;51.330;12.374;2023-05-23T12:02:57;1.85;;;1.70;;
12437;SDS011;6283;51.330;12.374;2023-05-23T12:05:22;3.90;;;1.80;;
12437;SDS011;6283;51.330;12.374;2023-05-23T12:07:48;4.80;;;2.28;;
12437;SDS011;6283;51.330;12.374;2023-05-23T12:10:14;4.05;;;2.40;;
12437;SDS011;6283;51.330;12.374;2023-05-23T12:12:41;5.32;;;2.65;;
12437;SDS011;6283;51.330;12.374;2023-05-23T12:15:08;4.55;;;2.58;;
12437;SDS011;6283;51.330;12.374;2023-05-23T12:17:38;3.80;;;2.83;;
12437;SDS011;6283;51.330;12.374;2023-05-23T12:20:09;3.60;;;2.67;;
12437;SDS011;6283;51.330;12.374;2023-05-23T12:22:36;3.40;;;3.10;;
12437;SDS011;6283;51.330;12.374;2023-05-23T12:25:02;3.60;;;3.30;;
12437;SDS011;6283;51.330;12.374;2023-05-23T12:27:29;3.83;;;3.40;;
12437;SDS011;6283;51.330;12.374;2023-05-23T12:32:37;4.73;;;3.70;;
12437;SDS011;6283;51.330;12.374;2023-05-23T12:35:04;3.57;;;3.27;;
12437;SDS011;6283;51.330;12.374;2023-05-23T12:37:30;4.47;;;4.00;;
12437;SDS011;6283;51.330;12.374;2023-05-23T12:39:56;3.50;;;3.07;;
12437;SDS011;6283;51.330;12.374;2023-05-23T12:42:22;4.30;;;3.60;;
12437;SDS011;6283;51.330;12.374;2023-05-23T12:44:52;3.93;;;3.63;;
12437;SDS011;6283;51.330;12.374;2023-05-23T12:47:18;3.90;;;3.10;;
12437;SDS011;6283;51.330;12.374;2023-05-23T12:49:44;3.80;;;3.33;;
12437;SDS011;6283;51.330;12.374;2023-05-23T12:52:10;6.37;;;3.20;;
12437;SDS011;6283;51.330;12.374;2023-05-23T12:54:36;2.53;;;2.33;;
12437;SDS011;6283;51.330;12.374;2023-05-23T12:57:02;4.70;;;2.60;;
12437;SDS011;6283;51.330;12.374;2023-05-23T12:59:27;2.95;;;2.65;;
12437;SDS011;6283;51.330;12.374;2023-05-23T13:01:53;4.27;;;3.10;;
12437;SDS011;6283;51.330;12.374;2023-05-23T13:04:19;3.43;;;3.13;;
12437;SDS011;6283;51.330;12.374;2023-05-23T13:06:45;7.43;;;3.47;;
12437;SDS011;6283;51.330;12.374;2023-05-23T13:09:10;3.93;;;3.30;;
12437;SDS011;6283;51.330;12.374;2023-05-23T13:11:36;4.03;;;3.63;;
12437;SDS011;6283;51.330;12.374;2023-05-23T13:14:02;4.67;;;4.17;;
12437;SDS011;6283;51.330;12.374;2023-05-23T13:16:28;5.70;;;4.50;;
12437;SDS011;6283;51.330;12.374;2023-05-23T13:18:53;5.63;;;4.17;;
12437;SDS011;6283;51.330;12.374;2023-05-23T13:21:19;4.87;;;4.23;;
12437;SDS011;6283;51.330;12.374;2023-05-23T13:23:45;4.40;;;4.00;;
12437;SDS011;6283;51.330;12.374;2023-05-23T13:26:11;5.03;;;4.23;;
12437;SDS011;6283;51.330;12.374;2023-05-23T13:28:38;4.03;;;3.47;;
12437;SDS011;6283;51.330;12.374;2023-05-23T13:31:04;4.00;;;3.70;;
12437;SDS011;6283;51.330;12.374;2023-05-23T13:33:30;3.97;;;3.50;;
12437;SDS011;6283;51.330;12.374;2023-05-23T13:35:55;3.93;;;3.30;;
12437;SDS011;6283;51.330;12.374;2023-05-23T13:38:21;5.10;;;3.13;;
12437;SDS011;6283;51.330;12.374;2023-05-23T13:40:47;4.87;;;2.90;;
12437;SDS011;6283;51.330;12.374;2023-05-23T13:43:12;3.57;;;3.27;;
12437;SDS011;6283;51.330;12.374;2023-05-23T13:45:38;3.20;;;2.90;;
12437;SDS011;6283;51.330;12.374;2023-05-23T13:48:04;7.80;;;3.03;;
12437;SDS011;6283;51.330;12.374;2023-05-23T13:50:30;4.43;;;3.70;;
12437;SDS011;6283;51.330;12.374;2023-05-23T13:52:55;4.60;;;4.00;;
12437;SDS011;6283;51.330;12.374;2023-05-23T13:55:21;4.73;;;4.33;;
12437;SDS011;6283;51.330;12.374;2023-05-23T13:57:47;4.30;;;3.90;;
12437;SDS011;6283;51.330;12.374;2023-05-23T14:00:12;5.00;;;4.33;;
12437;SDS011;6283;51.330;12.374;2023-05-23T14:02:39;6.43;;;4.30;;
12437;SDS011;6283;51.330;12.374;2023-05-23T14:05:04;4.90;;;4.20;;
12437;SDS011;6283;51.330;12.374;2023-05-23T14:07:31;4.27;;;3.70;;
12437;SDS011;6283;51.330;12.374;2023-05-23T14:09:57;4.93;;;4.03;;
12437;SDS011;6283;51.330;12.374;2023-05-23T14:12:23;4.40;;;4.00;;
12437;SDS011;6283;51.330;12.374;2023-05-23T14:14:50;4.83;;;4.10;;
12437;SDS011;6283;51.330;12.374;2023-05-23T14:17:15;5.37;;;3.33;;
12437;SDS011;6283;51.330;12.374;2023-05-23T14:19:41;6.20;;;4.23;;
12437;SDS011;6283;51.330;12.374;2023-05-23T14:22:07;3.97;;;3.57;;
12437;SDS011;6283;51.330;12.374;2023-05-23T14:24:32;4.17;;;3.70;;
12437;SDS011;6283;51.330;12.374;2023-05-23T14:26:58;4.37;;;3.97;;
12437;SDS011;6283;51.330;12.374;2023-05-23T14:29:24;8.03;;;4.00;;
12437;SDS011;6283;51.330;12.374;2023-05-23T14:31:50;6.80;;;4.30;;
12437;SDS011;6283;51.330;12.374;2023-05-23T14:34:15;6.50;;;3.97;;
12437;SDS011;6283;51.330;12.374;2023-05-23T14:36:41;5.80;;;4.13;;
12437;SDS011;6283;51.330;12.374;2023-05-23T14:39:07;4.57;;;4.10;;
12437;SDS011;6283;51.330;12.374;2023-05-23T14:41:33;5.77;;;4.33;;
12437;SDS011;6283;51.330;12.374;2023-05-23T14:43:59;5.53;;;3.90;;
12437;SDS011;6283;51.330;12.374;2023-05-23T14:46:25;4.37;;;3.67;;
12437;SDS011;6283;51.330;12.374;2023-05-23T14:48:50;4.40;;;4.00;;
12437;SDS011;6283;51.330;12.374;2023-05-23T14:51:16;4.37;;;3.60;;